createdAt,value
2023-01-18T00:00:34.190Z,5.43
2023-01-18T00:03:02.257Z,3.80
2023-01-18T00:05:31.773Z,2.67
2023-01-18T00:07:59.742Z,4.33
2023-01-18T00:10:27.890Z,3.20
2023-01-18T00:12:56.450Z,4.40
2023-01-18T00:15:24.674Z,3.97
2023-01-18T00:17:52.672Z,4.30
2023-01-18T00:20:22.951Z,3.30
2023-01-18T00:22:53.431Z,4.50
2023-01-18T00:25:23.204Z,2.43
2023-01-18T00:27:53.009Z,3.60
2023-01-18T00:30:23.459Z,3.30
2023-01-18T00:32:55.384Z,2.07
2023-01-18T00:35:23.868Z,3.17
2023-01-18T00:37:54.365Z,3.27
2023-01-18T00:40:23.577Z,2.50
2023-01-18T00:43:09.239Z,2.80
2023-01-18T00:45:37.332Z,2.57
2023-01-18T00:48:05.759Z,3.20
2023-01-18T00:50:33.813Z,2.93
2023-01-18T00:53:03.148Z,2.93
2023-01-18T00:55:31.178Z,2.97
2023-01-18T00:57:59.141Z,3.43
2023-01-18T01:00:27.660Z,3.67
2023-01-18T01:02:56.548Z,2.33
2023-01-18T01:05:44.943Z,2.00
2023-01-18T01:08:17.728Z,2.60
2023-01-18T01:10:47.001Z,3.13
2023-01-18T01:13:37.827Z,3.60
2023-01-18T01:16:24.741Z,2.50
2023-01-18T01:19:10.950Z,3.97
2023-01-18T01:21:57.074Z,2.40
2023-01-18T01:24:44.149Z,4.27
2023-01-18T01:27:12.836Z,2.40
2023-01-18T01:29:40.849Z,3.70
2023-01-18T01:32:09.024Z,3.50
2023-01-18T01:34:37.487Z,2.80
2023-01-18T01:37:06.075Z,4.10
2023-01-18T01:39:35.399Z,3.00
2023-01-18T01:42:03.454Z,2.57
2023-01-18T01:44:55.380Z,2.97
2023-01-18T01:47:35.899Z,2.30
2023-01-18T01:50:12.161Z,5.23
2023-01-18T01:52:43.615Z,2.73
2023-01-18T01:55:20.852Z,2.07
2023-01-18T01:57:52.943Z,3.67
2023-01-18T02:00:23.040Z,3.67
2023-01-18T02:02:55.081Z,2.97
2023-01-18T02:05:23.601Z,3.27
2023-01-18T02:07:52.340Z,2.90
2023-01-18T02:10:22.326Z,3.43
2023-01-18T02:12:53.584Z,2.97
2023-01-18T02:15:23.740Z,3.67
2023-01-18T02:18:11.499Z,5.80
2023-01-18T02:21:03.114Z,3.57
2023-01-18T02:23:35.447Z,1.30
2023-01-18T02:26:41.042Z,3.20
2023-01-18T02:29:17.407Z,2.57
2023-01-18T02:31:58.140Z,2.50
2023-01-18T02:34:34.622Z,2.60
2023-01-18T02:37:08.259Z,2.87
2023-01-18T02:39:45.639Z,4.60
2023-01-18T02:42:37.480Z,3.00
2023-01-18T02:45:41.605Z,3.70
2023-01-18T02:48:10.829Z,2.53
2023-01-18T02:50:38.796Z,3.63
2023-01-18T02:53:06.839Z,1.80
2023-01-18T02:55:43.488Z,3.27
2023-01-18T02:58:18.770Z,3.20
2023-01-18T03:00:52.910Z,3.40
2023-01-18T03:03:22.684Z,4.73
2023-01-18T03:05:52.955Z,1.80
2023-01-18T03:08:26.261Z,3.33
2023-01-18T03:11:01.169Z,3.47
2023-01-18T03:13:46.450Z,2.30
2023-01-18T03:16:21.256Z,2.80
2023-01-18T03:19:07.373Z,3.20
2023-01-18T03:21:41.823Z,2.50
2023-01-18T03:24:10.758Z,2.40
2023-01-18T03:26:43.219Z,2.43
2023-01-18T03:29:31.695Z,2.47
2023-01-18T03:32:22.403Z,1.80
2023-01-18T03:34:56.933Z,2.63
2023-01-18T03:37:30.703Z,3.47
2023-01-18T03:40:02.495Z,3.13
2023-01-18T03:42:35.615Z,2.97
2023-01-18T03:45:08.199Z,4.70
2023-01-18T03:47:38.542Z,3.10
2023-01-18T03:50:07.019Z,3.80
2023-01-18T03:52:42.419Z,1.90
2023-01-18T03:55:16.690Z,2.70
2023-01-18T03:57:50.199Z,2.40
2023-01-18T04:00:19.543Z,3.30
2023-01-18T04:02:51.007Z,3.60
2023-01-18T04:05:19.894Z,2.40
2023-01-18T04:07:48.129Z,4.47
2023-01-18T04:10:16.190Z,3.17
2023-01-18T04:12:44.440Z,3.13
2023-01-18T04:15:13.107Z,4.10
2023-01-18T04:17:41.197Z,3.10
2023-01-18T04:20:12.228Z,2.97
2023-01-18T04:22:40.248Z,3.47
2023-01-18T04:25:08.806Z,3.43
2023-01-18T04:27:36.833Z,4.00
2023-01-18T04:30:06.284Z,3.87
2023-01-18T04:32:34.581Z,3.83
2023-01-18T04:35:02.582Z,4.73
2023-01-18T04:37:34.099Z,2.80
2023-01-18T04:40:02.335Z,2.03
2023-01-18T04:42:30.664Z,2.50
2023-01-18T04:44:59.834Z,3.03
2023-01-18T04:47:29.421Z,2.83
2023-01-18T04:49:57.979Z,3.03
2023-01-18T04:52:26.840Z,2.53
2023-01-18T04:54:56.318Z,3.17
2023-01-18T04:57:24.316Z,4.23
2023-01-18T04:59:52.409Z,2.30
2023-01-18T05:02:20.641Z,2.03
2023-01-18T05:04:48.751Z,3.27
2023-01-18T05:07:17.540Z,2.70
2023-01-18T05:09:45.875Z,3.70
2023-01-18T05:12:15.247Z,2.37
2023-01-18T05:14:43.266Z,3.50
2023-01-18T05:17:11.270Z,4.40
2023-01-18T05:19:40.490Z,1.93
2023-01-18T05:22:08.610Z,2.80
2023-01-18T05:24:36.654Z,2.00
2023-01-18T05:27:04.845Z,3.07
2023-01-18T05:29:34.452Z,3.40
2023-01-18T05:32:02.453Z,5.00
2023-01-18T05:34:30.789Z,2.70
2023-01-18T05:37:00.415Z,5.40
2023-01-18T05:39:28.407Z,3.07
2023-01-18T05:41:59.288Z,3.00
2023-01-18T05:44:28.091Z,3.53
2023-01-18T05:46:57.772Z,2.33
2023-01-18T05:49:25.767Z,3.13
2023-01-18T05:51:53.817Z,4.07
2023-01-18T05:54:22.036Z,2.60
2023-01-18T05:56:51.116Z,3.03
2023-01-18T05:59:19.605Z,3.30
2023-01-18T06:01:47.999Z,3.80
2023-01-18T06:04:17.708Z,2.37
2023-01-18T06:06:45.810Z,3.20
2023-01-18T06:09:14.044Z,3.47
2023-01-18T06:11:42.288Z,2.50
2023-01-18T06:14:10.411Z,2.30
2023-01-18T06:16:38.684Z,2.70
2023-01-18T06:19:06.775Z,3.00
2023-01-18T06:21:36.479Z,4.07
2023-01-18T06:24:05.222Z,4.23
2023-01-18T06:26:33.513Z,2.10
2023-01-18T06:29:01.558Z,3.17
2023-01-18T06:31:29.824Z,2.70
2023-01-18T06:33:57.975Z,5.10
2023-01-18T06:36:26.081Z,8.83
2023-01-18T06:38:55.834Z,14.27
2023-01-18T06:41:23.885Z,15.90
2023-01-18T06:43:52.120Z,18.17
2023-01-18T06:46:20.742Z,21.90
2023-01-18T06:48:48.920Z,16.80
2023-01-18T06:51:16.938Z,19.07
2023-01-18T06:53:45.131Z,18.40
2023-01-18T06:56:15.033Z,8.70
2023-01-18T06:58:43.882Z,8.20
2023-01-18T07:01:12.735Z,4.40
2023-01-18T07:03:40.907Z,4.33
2023-01-18T07:06:09.190Z,2.97
2023-01-18T07:08:37.808Z,6.40
2023-01-18T07:11:07.688Z,3.90
2023-01-18T07:13:39.960Z,2.50
2023-01-18T07:16:09.348Z,3.10
2023-01-18T07:18:37.571Z,3.37
2023-01-18T07:21:08.035Z,3.63
2023-01-18T07:23:37.617Z,5.03
2023-01-18T07:26:07.646Z,2.70
2023-01-18T07:28:39.809Z,4.40
2023-01-18T07:31:08.335Z,2.53
2023-01-18T07:33:37.271Z,3.07
2023-01-18T07:36:07.390Z,3.80
2023-01-18T07:38:35.767Z,5.07
2023-01-18T07:41:06.057Z,3.80
2023-01-18T07:43:37.440Z,3.00
2023-01-18T07:46:06.286Z,2.90
2023-01-18T07:48:37.522Z,3.87
2023-01-18T07:51:08.924Z,2.87
2023-01-18T07:53:38.885Z,4.33
2023-01-18T07:56:09.777Z,2.33
2023-01-18T07:58:39.588Z,2.03
2023-01-18T08:01:09.998Z,2.50
2023-01-18T08:03:39.099Z,3.27
2023-01-18T08:06:09.207Z,2.17
2023-01-18T08:08:38.325Z,2.83
2023-01-18T08:11:08.363Z,4.13
2023-01-18T08:13:36.902Z,5.37
2023-01-18T08:16:09.331Z,4.97
2023-01-18T08:18:37.615Z,3.50
2023-01-18T08:21:06.071Z,3.57
2023-01-18T08:23:34.486Z,3.40
2023-01-18T08:26:03.269Z,3.00
2023-01-18T08:28:31.530Z,2.70
2023-01-18T08:31:10.362Z,3.20
2023-01-18T08:33:40.726Z,3.80
2023-01-18T08:36:11.652Z,2.93
2023-01-18T08:38:39.874Z,3.40
2023-01-18T08:41:08.336Z,2.37
2023-01-18T08:43:36.798Z,4.40
2023-01-18T08:46:05.158Z,2.90
2023-01-18T08:48:34.696Z,3.10
2023-01-18T08:51:03.347Z,4.00
2023-01-18T08:53:32.577Z,3.23
2023-01-18T08:56:01.158Z,3.63
2023-01-18T08:58:32.580Z,2.93
2023-01-18T09:01:00.884Z,3.60
2023-01-18T09:03:29.502Z,4.67
2023-01-18T09:06:00.846Z,3.70
2023-01-18T09:08:29.560Z,3.83
2023-01-18T09:11:01.597Z,5.30
2023-01-18T09:13:29.688Z,3.70
2023-01-18T09:16:01.838Z,3.50
2023-01-18T09:18:31.001Z,3.40
2023-01-18T09:21:05.670Z,4.43
2023-01-18T09:23:33.741Z,4.70
2023-01-18T09:26:03.950Z,3.97
2023-01-18T09:28:32.550Z,2.50
2023-01-18T09:31:02.156Z,5.07
2023-01-18T09:33:37.499Z,3.83
2023-01-18T09:36:15.546Z,4.27
2023-01-18T09:38:45.849Z,3.80
2023-01-18T09:41:27.538Z,3.57
2023-01-18T09:43:58.357Z,3.43
2023-01-18T09:46:28.016Z,3.37
2023-01-18T09:48:58.836Z,3.87
2023-01-18T09:51:33.238Z,4.93
2023-01-18T09:54:10.933Z,3.90
2023-01-18T09:56:45.462Z,4.40
2023-01-18T09:59:22.762Z,4.03
2023-01-18T10:01:54.367Z,3.77
2023-01-18T10:04:30.322Z,2.80
2023-01-18T10:07:02.310Z,3.43
2023-01-18T10:09:33.407Z,4.20
2023-01-18T10:12:04.299Z,3.90
2023-01-18T10:14:44.249Z,3.73
2023-01-18T10:17:17.715Z,4.60
2023-01-18T10:19:46.517Z,3.90
2023-01-18T10:22:22.138Z,3.27
2023-01-18T10:24:59.782Z,4.27
2023-01-18T10:27:44.423Z,3.80
2023-01-18T10:30:39.438Z,4.77
2023-01-18T10:33:17.725Z,3.23
2023-01-18T10:35:50.663Z,4.07
2023-01-18T10:38:23.397Z,2.93
2023-01-18T10:40:57.050Z,3.67
2023-01-18T10:43:26.655Z,3.93
2023-01-18T10:45:55.462Z,3.53
2023-01-18T10:48:31.242Z,2.90
2023-01-18T10:51:00.465Z,3.30
2023-01-18T10:53:33.204Z,3.47
2023-01-18T10:56:04.285Z,3.13
2023-01-18T10:58:35.871Z,3.67
2023-01-18T11:01:04.982Z,2.53
2023-01-18T11:03:39.596Z,3.07
2023-01-18T11:06:09.159Z,3.50
2023-01-18T11:08:38.870Z,3.97
2023-01-18T11:11:16.022Z,3.13
2023-01-18T11:13:46.365Z,2.50
2023-01-18T11:16:17.781Z,3.20
2023-01-18T11:19:01.314Z,4.17
2023-01-18T11:21:45.541Z,3.37
2023-01-18T11:24:18.758Z,2.90
2023-01-18T11:27:00.123Z,3.10
2023-01-18T11:29:31.385Z,2.03
2023-01-18T11:32:05.210Z,2.87
2023-01-18T11:34:36.278Z,2.80
2023-01-18T11:37:05.735Z,2.70
2023-01-18T11:39:37.587Z,3.03
2023-01-18T11:42:17.948Z,3.00
2023-01-18T11:44:49.815Z,3.13
2023-01-18T11:47:22.685Z,2.87
2023-01-18T11:49:58.510Z,3.10
2023-01-18T11:52:38.244Z,2.07
2023-01-18T11:55:21.471Z,3.13
2023-01-18T11:57:49.714Z,2.63
2023-01-18T12:00:19.168Z,2.63
2023-01-18T12:03:05.292Z,3.37
2023-01-18T12:05:47.073Z,3.00
2023-01-18T12:08:38.663Z,3.20
2023-01-18T12:11:33.407Z,3.00
2023-01-18T12:14:06.014Z,2.60
2023-01-18T12:16:52.317Z,3.20
2023-01-18T12:19:47.234Z,2.83
2023-01-18T12:22:45.775Z,2.70
2023-01-18T12:25:26.270Z,2.37
2023-01-18T12:28:02.513Z,2.50
2023-01-18T12:30:43.090Z,2.53
2023-01-18T12:33:26.107Z,3.23
2023-01-18T12:36:32.427Z,1.90
2023-01-18T12:39:04.921Z,1.93
2023-01-18T12:41:58.527Z,2.63
2023-01-18T12:44:49.558Z,2.07
2023-01-18T12:47:32.777Z,2.20
2023-01-18T12:50:03.445Z,1.93
2023-01-18T12:52:36.745Z,2.50
2023-01-18T12:55:08.300Z,2.40
2023-01-18T12:57:36.834Z,2.93
2023-01-18T13:00:10.356Z,2.10
2023-01-18T13:02:44.368Z,2.80
2023-01-18T13:05:19.532Z,2.27
2023-01-18T13:07:52.519Z,2.73
2023-01-18T13:10:24.571Z,2.50
2023-01-18T13:12:54.419Z,3.30
2023-01-18T13:15:32.775Z,2.87
2023-01-18T13:18:10.088Z,2.07
2023-01-18T13:20:50.488Z,2.00
2023-01-18T13:23:28.446Z,3.03
2023-01-18T13:26:03.182Z,2.93
2023-01-18T13:28:32.433Z,2.57
2023-01-18T13:31:04.983Z,3.10
2023-01-18T13:33:35.619Z,2.30
2023-01-18T13:36:07.991Z,3.20
2023-01-18T13:38:41.963Z,2.30
2023-01-18T13:41:13.391Z,2.10
2023-01-18T13:44:05.816Z,2.33
2023-01-18T13:46:39.120Z,2.63
2023-01-18T13:49:38.251Z,2.47
2023-01-18T13:52:31.651Z,1.97
2023-01-18T13:55:25.168Z,2.33
2023-01-18T13:57:55.481Z,2.30
2023-01-18T14:00:25.581Z,2.80
2023-01-18T14:03:04.617Z,2.33
2023-01-18T14:05:38.693Z,2.13
2023-01-18T14:08:07.254Z,3.07
2023-01-18T14:10:37.627Z,2.20
2023-01-18T14:13:06.949Z,2.27
2023-01-18T14:15:52.116Z,3.17
2023-01-18T14:18:25.017Z,2.57
2023-01-18T14:21:20.977Z,2.00
2023-01-18T14:24:14.526Z,2.27
2023-01-18T14:26:44.549Z,1.63
2023-01-18T14:29:19.485Z,2.57
2023-01-18T14:31:51.333Z,2.30
2023-01-18T14:34:36.899Z,2.37
2023-01-18T14:37:26.140Z,2.20
2023-01-18T14:40:18.357Z,2.30
2023-01-18T14:42:50.913Z,1.50
2023-01-18T14:45:23.166Z,1.97
2023-01-18T14:47:51.244Z,2.03
2023-01-18T14:50:23.697Z,2.67
2023-01-18T14:52:53.782Z,2.50
2023-01-18T14:55:25.829Z,1.73
2023-01-18T14:57:55.355Z,1.50
2023-01-18T15:00:25.331Z,1.53
2023-01-18T15:02:53.563Z,1.57
2023-01-18T15:05:29.863Z,2.27
2023-01-18T15:07:59.543Z,2.07
2023-01-18T15:10:28.312Z,1.73
2023-01-18T15:12:59.336Z,2.60
2023-01-18T15:15:31.966Z,1.87
2023-01-18T15:18:10.412Z,2.17
2023-01-18T15:20:41.914Z,3.07
2023-01-18T15:23:12.268Z,1.23
2023-01-18T15:25:40.690Z,2.00
2023-01-18T15:28:23.247Z,3.03
2023-01-18T15:30:53.591Z,1.80
2023-01-18T15:33:23.770Z,2.47
2023-01-18T15:35:57.335Z,2.93
2023-01-18T15:38:25.962Z,1.43
2023-01-18T15:40:59.380Z,2.40
2023-01-18T15:43:32.753Z,2.13
2023-01-18T15:46:01.646Z,2.47
2023-01-18T15:48:35.286Z,1.90
2023-01-18T15:51:10.997Z,1.53
2023-01-18T15:57:26.191Z,1.97
2023-01-18T15:59:55.386Z,2.20
2023-01-18T16:02:25.667Z,1.60
2023-01-18T16:05:09.457Z,2.07
2023-01-18T16:07:42.015Z,2.33
2023-01-18T16:10:30.325Z,1.77
2023-01-18T16:13:31.703Z,1.57
2023-01-18T16:16:16.986Z,2.07
2023-01-18T16:18:48.138Z,1.77
2023-01-18T16:21:23.624Z,1.70
2023-01-18T16:23:54.525Z,1.77
2023-01-18T16:26:28.032Z,1.60
2023-01-18T16:29:05.981Z,1.40
2023-01-18T16:31:35.639Z,2.70
2023-01-18T16:34:04.188Z,1.60
2023-01-18T16:36:41.742Z,2.03
2023-01-18T16:39:12.253Z,1.60
2023-01-18T16:41:42.942Z,2.20
2023-01-18T16:44:12.541Z,2.50
2023-01-18T16:46:40.820Z,1.10
2023-01-18T16:49:13.039Z,1.13
2023-01-18T16:51:41.436Z,1.53
2023-01-18T16:54:11.125Z,1.30
2023-01-18T16:56:39.861Z,1.57
2023-01-18T16:59:16.708Z,1.73
2023-01-18T17:01:45.048Z,1.57
2023-01-18T17:04:13.778Z,1.77
2023-01-18T17:06:42.837Z,2.50
2023-01-18T17:09:21.679Z,1.70
2023-01-18T17:11:50.428Z,0.80
2023-01-18T17:14:19.299Z,2.03
2023-01-18T17:16:49.074Z,1.53
2023-01-18T17:19:19.411Z,2.10
2023-01-18T17:21:48.870Z,1.60
2023-01-18T17:24:21.051Z,2.03
2023-01-18T17:26:49.604Z,1.97
2023-01-18T17:29:19.400Z,1.90
2023-01-18T17:31:52.520Z,1.30
2023-01-18T17:34:27.482Z,1.40
2023-01-18T17:36:57.860Z,1.90
2023-01-18T17:39:43.993Z,1.50
2023-01-18T17:42:19.146Z,3.13
2023-01-18T17:45:02.714Z,1.27
2023-01-18T17:47:31.941Z,0.90
2023-01-18T17:50:00.159Z,2.00
2023-01-18T17:52:28.339Z,2.33
2023-01-18T17:54:58.516Z,1.53
2023-01-18T17:57:28.776Z,1.50
2023-01-18T17:59:56.782Z,2.10
2023-01-18T18:02:26.395Z,1.43
2023-01-18T18:04:54.798Z,1.20
2023-01-18T18:07:23.165Z,1.80
2023-01-18T18:09:51.350Z,1.47
2023-01-18T18:12:21.131Z,1.33
2023-01-18T18:14:51.534Z,1.73
2023-01-18T18:17:19.918Z,1.67
2023-01-18T18:19:48.102Z,1.13
2023-01-18T18:22:16.477Z,2.10
2023-01-18T18:24:44.700Z,0.80
2023-01-18T18:27:13.329Z,1.93
2023-01-18T18:29:43.212Z,2.17
2023-01-18T18:32:11.565Z,2.20
2023-01-18T18:34:40.031Z,1.73
2023-01-18T18:37:08.386Z,1.57
2023-01-18T18:39:36.445Z,1.40
2023-01-18T18:42:04.657Z,1.47
2023-01-18T18:44:32.843Z,1.20
2023-01-18T18:47:04.897Z,1.50
2023-01-18T18:49:33.826Z,1.90
2023-01-18T18:52:02.287Z,2.43
2023-01-18T18:54:30.467Z,1.23
2023-01-18T18:57:00.137Z,1.57
2023-01-18T18:59:28.393Z,1.00
2023-01-18T19:01:56.828Z,2.10
2023-01-18T19:04:26.413Z,1.40
2023-01-18T19:06:54.562Z,1.70
2023-01-18T19:09:22.799Z,1.00
2023-01-18T19:11:55.429Z,2.37
2023-01-18T19:14:25.620Z,1.03
2023-01-18T19:16:54.099Z,1.27
2023-01-18T19:19:22.199Z,2.47
2023-01-18T19:21:51.695Z,2.43
2023-01-18T19:24:19.806Z,1.90
2023-01-18T19:26:48.028Z,1.83
2023-01-18T19:29:16.540Z,1.90
2023-01-18T19:31:44.739Z,1.53
2023-01-18T19:34:14.891Z,1.60
2023-01-18T19:36:43.069Z,1.67
2023-01-18T19:39:21.888Z,2.13
2023-01-18T19:41:51.094Z,1.57
2023-01-18T19:44:19.460Z,2.00
2023-01-18T19:46:47.620Z,2.47
2023-01-18T19:49:15.671Z,2.20
2023-01-18T19:51:45.504Z,1.03
2023-01-18T19:54:15.305Z,2.07
2023-01-18T19:56:43.270Z,1.60
2023-01-18T19:59:11.790Z,1.50
2023-01-18T20:01:39.896Z,1.77
2023-01-18T20:04:08.414Z,1.63
2023-01-18T20:06:38.598Z,2.90
2023-01-18T20:09:18.529Z,2.13
2023-01-18T20:11:49.663Z,2.77
2023-01-18T20:14:19.299Z,2.40
2023-01-18T20:16:47.992Z,2.50
2023-01-18T20:19:17.350Z,1.50
2023-01-18T20:21:45.985Z,2.20
2023-01-18T20:24:14.053Z,2.07
2023-01-18T20:26:42.353Z,2.87
2023-01-18T20:29:13.185Z,1.90
2023-01-18T20:31:44.592Z,1.30
2023-01-18T20:34:16.705Z,2.70
2023-01-18T20:36:46.991Z,2.80
2023-01-18T20:39:16.268Z,2.27
2023-01-18T20:41:44.670Z,2.20
2023-01-18T20:44:14.386Z,1.40
2023-01-18T20:46:42.681Z,1.90
2023-01-18T20:49:10.648Z,1.80
2023-01-18T20:51:40.265Z,1.97
2023-01-18T20:54:08.277Z,1.80
2023-01-18T20:56:36.303Z,1.83
2023-01-18T20:59:04.702Z,1.80
2023-01-18T21:01:34.365Z,2.40
2023-01-18T21:04:04.623Z,1.77
2023-01-18T21:06:33.353Z,2.07
2023-01-18T21:09:04.073Z,3.10
2023-01-18T21:11:32.258Z,2.13
2023-01-18T21:14:00.320Z,2.50
2023-01-18T21:16:28.757Z,3.07
2023-01-18T21:18:59.385Z,3.20
2023-01-18T21:21:29.360Z,3.30
2023-01-18T21:23:57.471Z,1.90
2023-01-18T21:26:25.519Z,2.30
2023-01-18T21:28:53.573Z,2.23
2023-01-18T21:31:21.904Z,3.70
2023-01-18T21:33:50.107Z,2.60
2023-01-18T21:36:20.165Z,2.50
2023-01-18T21:38:48.381Z,1.87
2023-01-18T21:41:34.282Z,2.33
2023-01-18T21:44:22.224Z,2.27
2023-01-18T21:46:52.530Z,2.60
2023-01-18T21:52:47.875Z,1.77
2023-01-18T21:55:16.879Z,1.87
2023-01-18T21:57:45.174Z,3.10
2023-01-18T22:00:14.236Z,2.27
2023-01-18T22:02:42.384Z,3.07
2023-01-18T22:05:10.990Z,3.10
2023-01-18T22:07:40.267Z,2.43
2023-01-18T22:10:08.870Z,3.10
2023-01-18T22:12:39.141Z,1.70
2023-01-18T22:15:08.084Z,3.03
2023-01-18T22:17:36.331Z,1.77
2023-01-18T22:20:04.740Z,1.77
2023-01-18T22:22:32.753Z,2.77
2023-01-18T22:25:02.484Z,2.63
2023-01-18T22:27:30.667Z,3.50
2023-01-18T22:29:58.764Z,2.33
2023-01-18T22:32:27.278Z,1.83
2023-01-18T22:34:55.623Z,2.43
2023-01-18T22:37:25.733Z,1.43
2023-01-18T22:39:53.940Z,2.80
2023-01-18T22:42:23.706Z,2.53
2023-01-18T22:44:52.092Z,3.10
2023-01-18T22:47:20.485Z,2.77
2023-01-18T22:49:48.562Z,2.30
2023-01-18T22:52:16.593Z,1.83
2023-01-18T22:54:45.009Z,2.80
2023-01-18T22:57:13.225Z,2.80
2023-01-18T22:59:42.616Z,2.87
2023-01-18T23:02:10.828Z,2.03
2023-01-18T23:04:39.093Z,2.47
2023-01-18T23:07:07.204Z,3.47
2023-01-18T23:09:35.802Z,1.93
2023-01-18T23:12:04.054Z,2.93
2023-01-18T23:14:49.567Z,2.30
2023-01-18T23:17:36.369Z,2.90
2023-01-18T23:20:05.462Z,3.47
2023-01-18T23:22:33.668Z,2.60
2023-01-18T23:25:02.294Z,2.23
2023-01-18T23:27:31.435Z,2.93
2023-01-18T23:29:59.649Z,1.80
2023-01-18T23:32:30.769Z,2.03
2023-01-18T23:34:59.354Z,2.43
2023-01-18T23:37:28.033Z,2.60
2023-01-18T23:40:13.498Z,2.10
2023-01-18T23:42:59.314Z,2.17
2023-01-18T23:45:44.696Z,1.70
2023-01-18T23:48:33.831Z,2.60
2023-01-18T23:51:19.944Z,3.00
2023-01-18T23:54:05.428Z,1.67
2023-01-18T23:56:34.286Z,3.13
2023-01-18T23:59:02.378Z,1.23
